Time;durP1;ratioP1;P1;durP2;ratioP2;P2;SDS_P1;SDS_P2;PMS_P1;PMS_P2;Temp;Humidity;BMP_temperature;BMP_pressure;BME280_temperature;BME280_humidity;BME280_pressure;Samples;Min_cycle;Max_cycle;Signal;HPM_P1;HPM_P2
2021/03/29 00:00:08;;;;;;;24.08;8.00;;;;;;;8.10;65.79;102554.19;4970180;28;20354;-71
2021/03/29 00:02:34;;;;;;;25.80;8.30;;;;;;;8.10;66.05;102548.91;5009672;28;20423;-70
2021/03/29 00:04:59;;;;;;;24.50;8.30;;;;;;;8.12;66.06;102552.50;4976866;28;20031;-70
2021/03/29 00:07:25;;;;;;;27.20;7.80;;;;;;;8.08;66.18;102556.75;4984429;28;20082;-69
2021/03/29 00:09:52;;;;;;;26.92;8.05;;;;;;;8.02;66.50;102554.75;4983928;28;20448;-71
2021/03/29 00:12:19;;;;;;;28.77;8.02;;;;;;;8.03;66.26;102556.53;4975701;28;20101;-70
2021/03/29 00:14:45;;;;;;;25.17;7.55;;;;;;;8.04;66.38;102557.44;4982607;28;20047;-70
2021/03/29 00:17:13;;;;;;;25.65;8.23;;;;;;;8.01;66.26;102560.84;5001475;28;20030;-69
2021/03/29 00:19:40;;;;;;;27.30;7.97;;;;;;;8.06;66.40;102546.97;4969647;28;20019;-70
2021/03/29 00:22:06;;;;;;;27.40;7.90;;;;;;;7.96;66.56;102553.59;5000960;28;20032;-70
2021/03/29 00:24:33;;;;;;;24.88;8.15;;;;;;;7.90;66.83;102551.59;4969721;28;20034;-70
2021/03/29 00:26:59;;;;;;;26.50;7.82;;;;;;;7.84;66.79;102551.34;4999280;28;20103;-68
2021/03/29 00:29:24;;;;;;;25.40;8.82;;;;;;;7.81;67.34;102551.19;4969092;28;20110;-69
2021/03/29 00:31:50;;;;;;;25.52;7.03;;;;;;;7.84;66.95;102546.94;4998936;28;20111;-70
2021/03/29 00:34:16;;;;;;;27.00;8.65;;;;;;;7.77;67.34;102544.88;4970138;28;20118;-70
2021/03/29 00:36:42;;;;;;;27.13;8.68;;;;;;;7.80;67.34;102539.75;5034318;28;20592;-70
2021/03/29 00:39:09;;;;;;;25.75;8.55;;;;;;;7.72;67.36;102529.72;4973983;28;20030;-70
2021/03/29 00:41:36;;;;;;;24.95;8.32;;;;;;;7.72;67.52;102542.88;4974322;28;20064;-70
2021/03/29 00:44:02;;;;;;;25.10;8.02;;;;;;;7.75;67.41;102541.31;4968671;28;20035;-69
2021/03/29 00:46:29;;;;;;;27.48;8.60;;;;;;;7.77;67.39;102539.63;5012196;28;20401;-70
2021/03/29 00:48:56;;;;;;;29.35;8.88;;;;;;;7.72;66.99;102549.06;5006562;28;20043;-69
2021/03/29 00:51:29;;;;;;;23.95;8.30;;;;;;;7.71;67.53;102539.38;4973525;28;20020;-71
2021/03/29 00:53:57;;;;;;;26.55;8.48;;;;;;;7.72;67.37;102550.78;4972048;28;20081;-70
2021/03/29 00:56:24;;;;;;;23.70;8.35;;;;;;;7.75;67.33;102548.31;4989133;28;20035;-69
2021/03/29 00:58:50;;;;;;;23.85;8.13;;;;;;;7.68;67.28;102545.41;4968171;28;20092;-70
2021/03/29 01:01:19;;;;;;;25.83;8.45;;;;;;;7.73;67.23;102544.69;4995622;28;20387;-69
2021/03/29 01:03:51;;;;;;;25.85;8.32;;;;;;;7.70;67.20;102549.84;4973468;28;20376;-70
2021/03/29 01:06:18;;;;;;;28.42;9.23;;;;;;;7.61;67.74;102547.69;4969193;28;20493;-70
2021/03/29 01:08:48;;;;;;;27.40;8.70;;;;;;;7.59;67.17;102538.84;4984606;28;20069;-70
2021/03/29 01:11:22;;;;;;;26.15;8.25;;;;;;;7.56;67.48;102542.25;4968571;28;20537;-70
2021/03/29 01:13:53;;;;;;;29.02;8.95;;;;;;;7.52;67.73;102553.47;5012428;28;20571;-70
2021/03/29 01:16:21;;;;;;;27.85;8.77;;;;;;;7.52;68.01;102561.34;4971945;28;20047;-70
2021/03/29 01:18:52;;;;;;;25.25;8.30;;;;;;;7.46;68.21;102547.94;4981980;28;20039;-70
2021/03/29 01:21:44;;;;;;;26.45;8.60;;;;;;;7.42;67.69;102541.63;4993845;28;20070;-70
2021/03/29 01:24:17;;;;;;;25.33;8.68;;;;;;;7.39;68.21;102543.22;4971489;28;20035;-70
2021/03/29 01:26:45;;;;;;;26.40;9.13;;;;;;;7.35;68.59;102542.19;4988561;28;20056;-69
2021/03/29 01:29:12;;;;;;;24.88;8.75;;;;;;;7.35;68.45;102544.81;4994487;28;20027;-70
2021/03/29 01:31:39;;;;;;;28.15;8.95;;;;;;;7.29;68.85;102534.03;4972529;28;20031;-69
2021/03/29 01:34:08;;;;;;;27.50;9.13;;;;;;;7.26;68.62;102529.50;4986916;28;20744;-69
2021/03/29 01:36:33;;;;;;;27.95;9.32;;;;;;;7.29;68.59;102545.44;4971996;28;21152;-70
2021/03/29 01:39:00;;;;;;;27.88;9.73;;;;;;;7.33;68.34;102536.84;5005226;28;20026;-69
2021/03/29 01:41:26;;;;;;;25.08;9.05;;;;;;;7.30;68.50;102539.34;4978914;28;20027;-70
2021/03/29 01:43:52;;;;;;;27.60;9.40;;;;;;;7.26;68.63;102550.56;4984272;28;20022;-70
2021/03/29 01:46:18;;;;;;;24.70;8.40;;;;;;;7.18;68.75;102540.53;4988058;28;20038;-69
2021/03/29 01:48:44;;;;;;;27.23;9.60;;;;;;;7.13;68.98;102540.31;4968799;28;20027;-70
2021/03/29 01:51:11;;;;;;;26.00;9.07;;;;;;;7.15;68.80;102546.56;4986745;28;20100;-70
2021/03/29 01:53:38;;;;;;;27.73;9.52;;;;;;;7.11;69.13;102542.88;4990795;28;20024;-70
2021/03/29 01:56:03;;;;;;;24.95;9.20;;;;;;;7.16;68.40;102548.34;4973687;28;20027;-70
2021/03/29 01:58:29;;;;;;;29.90;9.57;;;;;;;7.13;68.69;102546.47;4987053;28;20030;-70
2021/03/29 02:01:02;;;;;;;27.17;9.32;;;;;;;7.07;68.88;102558.47;4991803;28;20033;-69
2021/03/29 02:03:28;;;;;;;25.80;8.60;;;;;;;7.08;68.58;102558.53;4985590;28;20034;-70
2021/03/29 02:05:55;;;;;;;27.45;9.30;;;;;;;7.05;68.78;102554.84;4979660;28;20018;-69
2021/03/29 02:08:24;;;;;;;28.02;9.20;;;;;;;7.04;68.64;102553.06;4968004;28;20437;-69
2021/03/29 02:10:50;;;;;;;29.35;9.18;;;;;;;7.04;68.60;102558.31;4990519;28;20023;-70
2021/03/29 02:13:19;;;;;;;25.58;8.63;;;;;;;7.10;68.07;102543.69;5003806;28;20028;-70
2021/03/29 02:15:47;;;;;;;26.80;9.23;;;;;;;7.18;68.00;102537.91;4973214;28;20137;-70
2021/03/29 02:18:19;;;;;;;27.17;8.57;;;;;;;7.21;67.70;102541.56;4980276;28;20366;-69
2021/03/29 02:20:46;;;;;;;24.52;8.02;;;;;;;7.27;67.36;102543.59;5037574;28;20387;-71
2021/03/29 02:23:12;;;;;;;25.20;8.40;;;;;;;7.29;66.79;102534.91;4975265;28;20125;-69
2021/03/29 02:25:39;;;;;;;24.83;7.68;;;;;;;7.37;66.88;102542.25;4983757;28;20027;-71
2021/03/29 02:28:06;;;;;;;25.30;8.20;;;;;;;7.34;66.60;102540.41;4971461;28;20522;-71
2021/03/29 02:30:35;;;;;;;28.75;8.60;;;;;;;7.37;66.47;102545.78;4991858;28;20027;-70
2021/03/29 02:33:02;;;;;;;25.95;7.88;;;;;;;7.34;66.26;102543.03;4986649;28;20031;-70
2021/03/29 02:35:27;;;;;;;25.13;7.88;;;;;;;7.42;66.03;102549.50;4985492;28;20184;-70
2021/03/29 02:37:56;;;;;;;24.67;8.20;;;;;;;7.37;66.40;102551.06;4976379;28;20537;-71
2021/03/29 02:40:23;;;;;;;25.25;8.13;;;;;;;7.36;66.19;102548.38;4972124;28;20442;-71
2021/03/29 02:42:51;;;;;;;23.63;7.80;;;;;;;7.32;66.07;102550.88;4987749;28;20031;-70
2021/03/29 02:45:18;;;;;;;23.85;7.85;;;;;;;7.28;66.28;102541.03;4986340;28;20041;-68
2021/03/29 02:47:45;;;;;;;24.20;7.88;;;;;;;7.32;66.23;102537.72;4978068;28;20019;-70
2021/03/29 02:50:26;;;;;;;26.25;7.57;;;;;;;7.35;66.24;102543.94;4984982;28;20035;-70
2021/03/29 02:52:58;;;;;;;23.88;7.63;;;;;;;7.41;65.74;102541.56;4986850;28;20022;-68
2021/03/29 02:55:25;;;;;;;25.07;8.27;;;;;;;7.38;66.03;102546.69;4989989;28;20084;-70
2021/03/29 02:57:53;;;;;;;24.38;7.20;;;;;;;7.35;65.87;102541.28;4986288;28;20280;-70
2021/03/29 03:00:23;;;;;;;23.73;7.70;;;;;;;7.35;65.94;102551.81;4969044;28;20031;-69
2021/03/29 03:02:49;;;;;;;24.13;7.38;;;;;;;7.32;66.14;102558.75;5004690;28;20375;-70
2021/03/29 03:05:15;;;;;;;24.05;7.60;;;;;;;7.28;66.47;102556.81;4976856;28;20027;-70
2021/03/29 03:07:41;;;;;;;24.13;7.10;;;;;;;7.29;65.80;102552.44;4996895;28;20474;-69
2021/03/29 03:10:10;;;;;;;24.20;7.30;;;;;;;7.32;66.02;102550.88;4986361;28;20473;-70
2021/03/29 03:12:43;;;;;;;24.75;7.72;;;;;;;7.29;65.94;102545.44;4978867;28;20036;-69
2021/03/29 03:15:12;;;;;;;24.80;7.63;;;;;;;7.35;65.69;102543.94;4968445;28;20047;-69
2021/03/29 03:17:38;;;;;;;23.70;7.13;;;;;;;7.24;66.25;102546.97;4970604;28;20027;-69
2021/03/29 03:20:11;;;;;;;22.80;6.95;;;;;;;7.22;66.20;102545.97;5015957;28;20103;-70
2021/03/29 03:22:36;;;;;;;;;;;;;;;7.22;65.92;102550.34;4984959;28;20030;-70
2021/03/29 03:25:18;;;;;;;24.35;7.47;;;;;;;7.17;66.11;102555.41;4973654;28;19925;-69
2021/03/29 03:27:45;;;;;;;24.63;6.68;;;;;;;7.17;66.31;102551.91;4985812;28;20068;-69
2021/03/29 03:30:22;;;;;;;25.27;7.25;;;;;;;7.15;66.56;102546.56;4987201;28;20031;-70
2021/03/29 03:32:50;;;;;;;23.60;7.25;;;;;;;7.12;66.30;102551.66;4969879;28;20121;-70
2021/03/29 03:35:18;;;;;;;23.08;6.70;;;;;;;7.17;66.37;102537.00;5000629;28;20084;-70
2021/03/29 03:37:48;;;;;;;22.65;6.70;;;;;;;7.19;66.33;102537.06;4970501;28;20062;-69
2021/03/29 03:40:16;;;;;;;21.65;7.40;;;;;;;7.21;66.38;102544.22;4981632;28;20077;-69
2021/03/29 03:42:42;;;;;;;23.55;6.78;;;;;;;7.23;66.27;102545.16;4989512;28;20069;-70
2021/03/29 03:45:09;;;;;;;23.73;6.65;;;;;;;7.24;66.01;102541.72;4974812;28;20031;-69
2021/03/29 03:47:37;;;;;;;22.88;7.10;;;;;;;7.31;65.65;102545.50;5030240;28;20020;-69
2021/03/29 03:50:03;;;;;;;23.63;6.60;;;;;;;7.25;65.84;102556.69;4970137;28;20038;-69
2021/03/29 03:52:29;;;;;;;23.60;6.68;;;;;;;7.21;66.00;102549.47;4985563;28;20414;-70
2021/03/29 03:54:55;;;;;;;23.13;6.38;;;;;;;7.17;66.12;102544.91;4979781;28;20531;-69
2021/03/29 03:57:22;;;;;;;23.10;6.38;;;;;;;7.29;65.93;102555.06;4973404;28;20037;-70
2021/03/29 03:59:47;;;;;;;22.10;5.88;;;;;;;7.29;65.97;102550.69;5000333;28;20030;-69
2021/03/29 04:02:13;;;;;;;22.50;6.20;;;;;;;7.36;65.68;102545.72;4969974;28;20030;-69
2021/03/29 04:04:38;;;;;;;23.48;6.47;;;;;;;7.34;65.74;102548.28;4981199;28;20443;-70
2021/03/29 04:07:04;;;;;;;22.13;5.78;;;;;;;7.40;65.38;102547.66;4975713;28;20042;-70
2021/03/29 04:09:56;;;;;;;21.98;6.25;;;;;;;7.43;65.00;102558.34;4973482;28;20366;-70
2021/03/29 04:12:15;;;;;;;22.35;6.43;;;;;;;7.46;65.26;102546.19;4993338;28;20047;-70
2021/03/29 04:14:41;;;;;;;22.05;6.20;;;;;;;7.46;64.99;102559.34;4986536;28;20138;-70
2021/03/29 04:17:07;;;;;;;21.85;5.80;;;;;;;7.38;65.52;102551.94;4970971;28;20130;-69
2021/03/29 04:19:35;;;;;;;22.90;6.82;;;;;;;7.35;65.71;102555.34;4985847;28;20497;-70
2021/03/29 04:22:01;;;;;;;24.73;6.32;;;;;;;7.29;65.83;102555.94;5009966;28;20096;-70
2021/03/29 04:24:27;;;;;;;23.55;5.90;;;;;;;7.31;65.82;102556.03;4968126;28;20038;-70
2021/03/29 04:26:53;;;;;;;20.75;6.03;;;;;;;7.31;65.80;102559.56;5021733;28;20033;-70
2021/03/29 04:29:18;;;;;;;22.35;6.45;;;;;;;7.27;65.70;102573.41;4969242;28;20354;-69
2021/03/29 04:31:44;;;;;;;22.20;6.20;;;;;;;7.24;66.24;102572.38;5050221;28;20467;-70
2021/03/29 04:34:09;;;;;;;22.65;6.10;;;;;;;7.16;66.28;102566.75;4974979;28;20496;-70
2021/03/29 04:36:34;;;;;;;20.45;5.50;;;;;;;7.22;66.13;102576.66;4980424;28;20471;-69
2021/03/29 04:39:00;;;;;;;23.65;5.80;;;;;;;7.17;66.26;102565.06;4985698;28;20434;-70
2021/03/29 04:41:25;;;;;;;21.40;5.78;;;;;;;7.17;66.65;102568.56;4989283;28;20027;-70
2021/03/29 04:43:50;;;;;;;21.20;6.00;;;;;;;7.14;66.70;102569.31;4987285;28;20047;-69
2021/03/29 04:46:16;;;;;;;22.08;6.43;;;;;;;7.15;66.67;102568.50;4979792;28;20058;-70
2021/03/29 04:48:41;;;;;;;22.73;6.30;;;;;;;7.10;66.90;102571.75;4983536;28;20027;-70
2021/03/29 04:51:06;;;;;;;21.73;6.07;;;;;;;7.04;67.20;102574.09;4969002;28;20053;-69
2021/03/29 04:53:32;;;;;;;23.35;6.20;;;;;;;7.02;67.21;102573.09;4991336;28;20536;-69
2021/03/29 04:55:57;;;;;;;22.92;5.88;;;;;;;7.04;67.01;102568.84;4986138;28;20118;-70
2021/03/29 04:58:22;;;;;;;24.48;5.70;;;;;;;6.93;67.54;102577.13;4988986;28;20026;-69
2021/03/29 05:00:48;;;;;;;22.75;6.32;;;;;;;6.91;67.57;102578.78;5038826;28;20031;-69
2021/03/29 05:03:13;;;;;;;20.75;5.43;;;;;;;6.95;67.17;102587.72;4985765;28;20125;-69
2021/03/29 05:05:38;;;;;;;21.83;6.25;;;;;;;6.90;67.56;102586.59;4994430;28;20023;-70
2021/03/29 05:08:04;;;;;;;21.70;5.88;;;;;;;6.92;67.47;102591.09;4987674;28;20482;-71
2021/03/29 05:10:29;;;;;;;21.67;6.20;;;;;;;6.90;67.89;102591.84;4991896;28;20088;-70
2021/03/29 05:12:55;;;;;;;24.08;6.18;;;;;;;6.79;67.97;102588.72;4988894;28;20019;-70
2021/03/29 05:15:20;;;;;;;21.42;5.80;;;;;;;6.80;68.22;102596.69;4991884;28;20033;-68
2021/03/29 05:17:46;;;;;;;22.05;6.10;;;;;;;6.80;68.27;102601.00;4987482;28;20027;-70
2021/03/29 05:20:11;;;;;;;22.25;6.30;;;;;;;6.78;68.53;102602.69;4977485;28;20033;-71
2021/03/29 05:22:36;;;;;;;22.23;6.15;;;;;;;6.79;68.29;102596.59;4987626;28;20374;-70
2021/03/29 05:25:03;;;;;;;23.40;6.25;;;;;;;6.77;68.41;102603.50;4972228;28;20080;-69
2021/03/29 05:27:28;;;;;;;23.15;6.28;;;;;;;6.77;68.71;102607.06;4993039;28;20086;-71
2021/03/29 05:29:53;;;;;;;22.52;5.90;;;;;;;6.72;68.95;102605.91;5046940;28;20123;-70
2021/03/29 05:32:22;;;;;;;20.15;5.50;;;;;;;6.77;68.70;102614.00;5000426;28;20027;-69
2021/03/29 05:34:50;;;;;;;22.13;5.60;;;;;;;6.82;68.65;102604.63;4971933;28;20042;-70
2021/03/29 05:37:17;;;;;;;22.63;6.35;;;;;;;6.82;68.72;102614.25;4990059;28;20026;-70
2021/03/29 05:39:50;;;;;;;23.60;6.07;;;;;;;6.78;68.74;102615.81;5005333;28;20035;-70
2021/03/29 05:42:17;;;;;;;22.05;6.00;;;;;;;6.67;69.45;102607.44;4971852;28;20117;-70
2021/03/29 05:44:43;;;;;;;23.63;6.18;;;;;;;6.63;69.49;102616.88;5000117;28;20055;-69
2021/03/29 05:47:08;;;;;;;22.50;6.28;;;;;;;6.59;69.57;102612.28;4992031;28;20035;-70
2021/03/29 05:49:34;;;;;;;22.20;6.20;;;;;;;6.59;69.99;102616.66;4987376;28;20084;-73
2021/03/29 05:52:01;;;;;;;21.70;6.10;;;;;;;6.56;69.89;102624.41;4983797;28;20525;-71
2021/03/29 05:54:27;;;;;;;23.45;6.20;;;;;;;6.60;69.73;102624.63;4971061;28;20462;-71
2021/03/29 05:56:53;;;;;;;20.50;6.13;;;;;;;6.61;69.88;102628.13;4987475;28;20088;-70
2021/03/29 05:59:25;;;;;;;22.45;6.10;;;;;;;6.59;70.02;102627.19;5004736;28;20482;-73
2021/03/29 06:01:55;;;;;;;22.85;6.20;;;;;;;6.58;70.04;102625.34;4986118;28;20501;-73
2021/03/29 06:04:42;;;;;;;24.50;6.38;;;;;;;6.65;69.62;102631.84;4970897;28;20107;-72
2021/03/29 06:07:23;;;;;;;22.77;6.47;;;;;;;6.71;69.32;102634.75;4973881;28;20500;-74
2021/03/29 06:09:50;;;;;;;21.55;5.80;;;;;;;6.70;69.67;102641.75;4984609;28;20056;-74
2021/03/29 06:12:18;;;;;;;21.65;6.03;;;;;;;6.74;69.60;102642.78;4973498;28;20110;-73
2021/03/29 06:14:44;;;;;;;23.27;6.30;;;;;;;6.80;69.27;102640.44;5003405;28;20052;-68
2021/03/29 06:17:22;;;;;;;22.90;6.47;;;;;;;6.85;69.44;102649.47;4970853;28;20555;-73
2021/03/29 06:19:54;;;;;;;22.25;6.18;;;;;;;6.94;69.40;102646.38;5004789;28;20097;-72
2021/03/29 06:22:28;;;;;;;21.40;5.72;;;;;;;6.95;68.50;102649.09;4971918;28;20469;-71
2021/03/29 06:25:05;;;;;;;22.25;6.68;;;;;;;6.96;69.01;102645.63;4975176;28;20030;-72
2021/03/29 06:27:40;;;;;;;21.42;6.30;;;;;;;6.94;68.96;102646.38;5071402;28;20485;-72
2021/03/29 06:30:17;;;;;;;23.77;6.40;;;;;;;6.96;69.27;102660.50;4988922;28;20031;-72
2021/03/29 06:33:02;;;;;;;22.85;6.38;;;;;;;7.00;68.89;102661.56;4971453;28;20054;-71
2021/03/29 06:35:32;;;;;;;27.88;6.40;;;;;;;7.11;68.88;102660.34;5005977;28;20099;-70
2021/03/29 06:38:14;;;;;;;22.75;6.30;;;;;;;7.21;68.26;102653.75;4978455;28;20031;-71
2021/03/29 06:40:49;;;;;;;24.92;6.70;;;;;;;7.27;68.60;102651.44;4984206;28;20714;-71
2021/03/29 06:43:27;;;;;;;22.00;5.95;;;;;;;7.39;68.32;102656.38;4978405;28;20046;-71
2021/03/29 06:45:58;;;;;;;23.27;6.07;;;;;;;7.52;67.76;102668.38;4995734;28;20031;-70
2021/03/29 06:48:29;;;;;;;23.48;6.22;;;;;;;7.62;67.49;102663.59;4999254;28;20020;-70
2021/03/29 06:51:18;;;;;;;23.30;6.70;;;;;;;7.71;67.30;102667.47;4973052;28;20034;-70
2021/03/29 06:53:53;;;;;;;23.17;6.22;;;;;;;7.85;67.03;102666.38;4986857;28;20042;-71
2021/03/29 06:56:19;;;;;;;25.45;6.35;;;;;;;7.95;66.74;102673.84;4989919;28;20099;-71
2021/03/29 06:58:44;;;;;;;24.23;6.63;;;;;;;8.10;66.36;102665.69;4974617;28;20473;-71
2021/03/29 07:01:15;;;;;;;22.33;6.07;;;;;;;8.19;66.50;102673.09;5004315;28;20688;-72
2021/03/29 07:03:43;;;;;;;21.17;5.88;;;;;;;8.30;66.13;102677.09;4988074;28;20473;-70
2021/03/29 07:06:09;;;;;;;22.02;6.28;;;;;;;8.44;65.58;102679.44;4972063;28;20054;-71
2021/03/29 07:08:34;;;;;;;23.50;5.97;;;;;;;8.50;65.29;102672.72;4970808;28;20117;-73
2021/03/29 07:11:00;;;;;;;21.90;6.38;;;;;;;8.64;64.90;102681.19;4993493;28;20106;-72
2021/03/29 07:13:28;;;;;;;21.73;6.25;;;;;;;8.69;65.14;102687.56;5036594;28;20027;-69
2021/03/29 07:15:59;;;;;;;23.65;6.72;;;;;;;8.78;64.92;102675.56;4988812;28;20046;-70
2021/03/29 07:18:27;;;;;;;25.17;6.75;;;;;;;8.87;64.90;102678.63;4968506;28;20062;-71
2021/03/29 07:20:53;;;;;;;22.38;6.28;;;;;;;9.01;64.50;102679.16;4986792;28;20107;-71
2021/03/29 07:23:19;;;;;;;21.35;6.20;;;;;;;9.10;63.78;102684.81;4970446;28;20041;-70
2021/03/29 07:25:46;;;;;;;22.15;6.43;;;;;;;9.18;63.44;102675.44;4972327;28;20018;-69
2021/03/29 07:28:12;;;;;;;20.85;6.30;;;;;;;9.36;62.80;102684.91;4971603;28;20031;-71
2021/03/29 07:30:49;;;;;;;23.38;6.57;;;;;;;9.42;62.98;102686.06;4989271;28;20064;-70
2021/03/29 07:33:16;;;;;;;22.98;6.25;;;;;;;9.46;63.20;102684.41;4985133;28;20381;-71
2021/03/29 07:35:55;;;;;;;21.00;5.70;;;;;;;9.58;62.55;102681.34;4995241;28;20027;-73
2021/03/29 07:38:23;;;;;;;23.48;6.40;;;;;;;9.67;62.73;102681.72;5035954;28;20393;-73
2021/03/29 07:40:51;;;;;;;23.80;7.35;;;;;;;9.74;62.16;102675.81;5003509;28;20517;-74
2021/03/29 07:43:22;;;;;;;21.35;6.60;;;;;;;9.84;61.85;102691.97;4975175;28;20470;-72
2021/03/29 07:45:52;;;;;;;24.27;6.70;;;;;;;9.97;61.13;102694.22;4990126;28;20429;-72
2021/03/29 07:48:38;;;;;;;21.33;6.22;;;;;;;10.11;62.10;102700.91;4986411;28;20069;-72
2021/03/29 07:51:12;;;;;;;22.33;6.50;;;;;;;10.28;61.59;102704.16;4988580;28;20035;-73
2021/03/29 07:53:49;;;;;;;22.35;6.32;;;;;;;10.48;60.54;102711.00;4992434;28;20027;-72
2021/03/29 07:56:30;;;;;;;22.45;6.18;;;;;;;10.51;59.55;102708.47;4968768;28;20031;-73
2021/03/29 07:58:56;;;;;;;22.20;6.38;;;;;;;10.62;60.09;102712.38;5036201;28;20037;-72
2021/03/29 08:01:21;;;;;;;22.92;5.57;;;;;;;10.78;58.82;102711.16;4985183;28;20027;-73
2021/03/29 08:03:50;;;;;;;22.77;6.20;;;;;;;10.86;58.50;102706.09;4988637;28;20105;-73
2021/03/29 08:06:38;;;;;;;23.02;6.00;;;;;;;10.92;59.34;102714.25;4967156;28;20035;-72
2021/03/29 08:09:09;;;;;;;21.60;6.00;;;;;;;10.95;58.02;102709.03;4986638;28;20035;-71
2021/03/29 08:12:02;;;;;;;21.88;5.80;;;;;;;11.02;57.49;102716.34;4988573;28;20088;-72
2021/03/29 08:14:36;;;;;;;21.58;6.03;;;;;;;11.12;57.43;102721.06;4968935;28;20028;-72
2021/03/29 08:17:45;;;;;;;19.55;5.47;;;;;;;11.34;57.13;102713.81;4969408;28;20051;-72
2021/03/29 08:20:11;;;;;;;19.88;5.53;;;;;;;11.25;56.51;102730.31;4968553;28;20031;-70
2021/03/29 08:22:36;;;;;;;21.40;5.78;;;;;;;11.40;56.28;102731.63;4988967;28;20062;-70
2021/03/29 08:25:02;;;;;;;22.30;6.10;;;;;;;11.52;55.28;102724.97;4984671;28;20110;-70
2021/03/29 08:27:30;;;;;;;23.27;5.75;;;;;;;11.59;55.71;102730.44;4977284;28;20096;-70
2021/03/29 08:30:13;;;;;;;25.15;5.97;;;;;;;11.79;55.10;102731.94;4970291;28;20366;-70
2021/03/29 08:32:40;;;;;;;21.38;5.78;;;;;;;12.12;54.97;102731.16;4973088;28;20030;-71
2021/03/29 08:35:18;;;;;;;23.23;6.05;;;;;;;12.37;54.72;102729.16;4972014;28;20121;-71
2021/03/29 08:37:46;;;;;;;23.23;5.82;;;;;;;12.61;51.65;102728.00;4990693;28;20380;-70
2021/03/29 08:40:15;;;;;;;18.42;5.13;;;;;;;12.90;50.65;102721.69;4988204;28;20026;-73
2021/03/29 08:42:43;;;;;;;19.13;4.93;;;;;;;12.97;50.66;102732.47;4975740;28;20096;-73
2021/03/29 08:45:11;;;;;;;20.98;5.00;;;;;;;12.94;47.25;102738.56;4991420;28;20351;-73
2021/03/29 08:47:42;;;;;;;18.25;4.78;;;;;;;13.00;49.66;102732.53;4992182;28;20027;-74
2021/03/29 08:50:18;;;;;;;18.52;4.80;;;;;;;13.30;48.49;102739.44;4988985;28;21450;-72
2021/03/29 08:52:52;;;;;;;21.48;5.13;;;;;;;13.44;48.69;102746.00;4988874;28;20072;-72
2021/03/29 08:55:23;;;;;;;18.92;4.63;;;;;;;13.83;46.07;102747.72;5010255;28;20076;-74
2021/03/29 08:57:50;;;;;;;19.20;4.85;;;;;;;14.06;44.81;102744.63;4982982;28;20106;-72
2021/03/29 09:00:19;;;;;;;17.88;4.70;;;;;;;14.16;44.95;102745.72;4970172;28;20043;-75
2021/03/29 09:02:45;;;;;;;17.45;4.47;;;;;;;14.28;43.04;102752.19;4987145;28;20068;-72
2021/03/29 09:05:12;;;;;;;22.33;4.80;;;;;;;14.35;44.75;102752.28;4970221;28;20478;-72
2021/03/29 09:07:45;;;;;;;22.90;5.10;;;;;;;14.66;45.59;102747.56;5010317;28;20352;-72
2021/03/29 09:10:36;;;;;;;19.92;5.00;;;;;;;15.10;43.88;102755.38;4986013;28;20083;-69
2021/03/29 09:13:07;;;;;;;19.83;4.30;;;;;;;15.37;42.70;102746.03;4976328;28;20419;-71
2021/03/29 09:15:37;;;;;;;18.35;4.40;;;;;;;15.24;39.93;102761.81;4971309;28;20096;-73
2021/03/29 09:18:07;;;;;;;18.75;4.25;;;;;;;15.32;39.88;102748.63;4969793;28;20027;-74
2021/03/29 09:20:38;;;;;;;17.40;4.50;;;;;;;15.39;41.29;102750.53;4987908;28;20027;-71
2021/03/29 09:23:04;;;;;;;20.00;5.10;;;;;;;15.64;41.42;102756.16;4990012;28;20110;-72
2021/03/29 09:25:37;;;;;;;20.98;4.82;;;;;;;16.10;40.77;102751.44;4987573;28;20063;-72
2021/03/29 09:28:42;;;;;;;21.80;4.93;;;;;;;16.29;38.35;102762.34;4985407;28;20112;-69
2021/03/29 09:31:21;;;;;;;17.63;4.70;;;;;;;16.39;40.30;102759.78;5003567;28;20472;-70
2021/03/29 09:33:48;;;;;;;18.52;4.85;;;;;;;16.46;38.32;102767.88;4978289;28;20420;-71
2021/03/29 09:36:17;;;;;;;18.77;4.50;;;;;;;16.43;39.09;102771.38;4971502;28;20042;-73
2021/03/29 09:38:45;;;;;;;17.83;4.45;;;;;;;16.26;38.61;102773.88;4969746;28;20027;-73
2021/03/29 09:41:22;;;;;;;17.73;4.30;;;;;;;16.39;37.85;102781.13;4984614;28;20055;-72
2021/03/29 09:43:50;;;;;;;17.52;4.25;;;;;;;16.84;39.36;102781.56;4978756;28;20023;-73
2021/03/29 09:46:17;;;;;;;17.83;4.20;;;;;;;17.28;35.79;102768.59;4968902;28;20037;-70
2021/03/29 09:48:43;;;;;;;17.65;4.13;;;;;;;17.32;35.95;102781.97;4987259;28;20104;-71
2021/03/29 09:51:18;;;;;;;18.40;4.15;;;;;;;17.53;34.14;102791.00;4987687;28;20043;-75
2021/03/29 09:53:44;;;;;;;19.35;4.13;;;;;;;17.61;33.75;102789.28;4968137;28;20031;-74
2021/03/29 09:56:09;;;;;;;19.10;4.40;;;;;;;17.68;34.32;102780.41;5004785;28;20113;-70
2021/03/29 09:58:42;;;;;;;17.38;4.00;;;;;;;18.06;34.94;102787.75;4971702;28;20069;-73
2021/03/29 10:01:22;;;;;;;17.73;3.75;;;;;;;18.27;31.94;102791.38;4997297;28;20026;-74
2021/03/29 10:03:52;;;;;;;18.38;3.70;;;;;;;18.79;31.00;102788.81;4987571;28;20024;-73
2021/03/29 10:06:18;;;;;;;15.90;3.80;;;;;;;18.88;31.31;102787.94;5007305;28;20114;-72
2021/03/29 10:08:54;;;;;;;16.25;3.92;;;;;;;18.85;31.74;102779.00;4970708;28;20031;-74
2021/03/29 10:11:19;;;;;;;15.40;3.50;;;;;;;19.09;29.05;102783.47;4972006;28;20023;-74
2021/03/29 10:13:45;;;;;;;18.58;3.72;;;;;;;19.24;30.03;102787.97;5006408;28;20072;-71
2021/03/29 10:16:22;;;;;;;19.08;3.83;;;;;;;19.55;29.86;102793.25;4997637;28;20041;-73
2021/03/29 10:19:00;;;;;;;21.42;4.38;;;;;;;19.29;29.82;102791.50;4970065;28;20027;-72
2021/03/29 10:21:26;;;;;;;15.90;3.58;;;;;;;19.37;28.52;102800.44;4989780;28;20031;-72
2021/03/29 10:24:15;;;;;;;16.52;3.60;;;;;;;19.29;30.12;102791.50;4981411;28;20038;-68
2021/03/29 10:26:57;;;;;;;14.20;3.70;;;;;;;19.17;29.00;102803.13;4971099;28;20062;-73
2021/03/29 10:29:37;;;;;;;15.95;3.80;;;;;;;19.62;28.25;102805.75;4987977;28;20023;-69
2021/03/29 10:32:08;;;;;;;16.90;4.00;;;;;;;20.14;29.81;102800.22;4982961;28;20043;-69
2021/03/29 10:34:37;;;;;;;15.30;3.78;;;;;;;20.33;26.70;102800.16;4971100;28;20019;-70
2021/03/29 10:37:04;;;;;;;16.95;4.10;;;;;;;20.66;26.05;102798.13;4991159;28;20024;-72
2021/03/29 10:39:30;;;;;;;16.55;3.70;;;;;;;21.33;27.27;102785.03;4973145;28;20069;-72
2021/03/29 10:41:55;;;;;;;15.82;3.78;;;;;;;21.48;25.21;102800.13;4971460;28;20031;-74
2021/03/29 10:44:20;;;;;;;16.05;3.67;;;;;;;21.12;26.83;102789.72;4986121;28;20073;-73
2021/03/29 10:46:46;;;;;;;16.90;4.00;;;;;;;20.68;28.11;102791.00;4969924;28;20423;-72
2021/03/29 10:49:11;;;;;;;17.48;3.63;;;;;;;21.51;27.41;102779.50;4985820;28;20031;-71
2021/03/29 10:51:37;;;;;;;16.50;3.90;;;;;;;21.89;24.85;102788.06;4970611;28;20034;-70
2021/03/29 10:54:03;;;;;;;17.83;4.18;;;;;;;21.72;26.28;102796.31;5004696;28;20019;-71
2021/03/29 10:56:29;;;;;;;16.88;3.65;;;;;;;21.51;23.86;102784.91;4972168;28;20517;-72
2021/03/29 10:58:54;;;;;;;17.73;3.90;;;;;;;21.15;24.17;102781.63;4985373;28;20097;-75
2021/03/29 11:01:19;;;;;;;15.07;3.95;;;;;;;21.17;25.23;102785.22;4970286;28;20042;-75
2021/03/29 11:03:45;;;;;;;17.80;4.10;;;;;;;21.57;25.22;102778.56;5004221;28;20102;-71
2021/03/29 11:06:10;;;;;;;17.63;4.13;;;;;;;21.85;24.74;102781.78;5005198;28;20034;-70
2021/03/29 11:08:35;;;;;;;17.42;4.35;;;;;;;22.19;25.54;102783.16;4993343;28;20101;-71
2021/03/29 11:11:01;;;;;;;16.83;3.60;;;;;;;22.10;23.85;102768.00;4989571;28;20025;-73
2021/03/29 11:13:26;;;;;;;16.40;3.80;;;;;;;22.16;23.74;102772.44;4985850;28;20031;-73
2021/03/29 11:15:53;;;;;;;15.43;3.63;;;;;;;22.63;21.85;102778.97;4970473;28;20521;-72
2021/03/29 11:18:18;;;;;;;17.13;3.60;;;;;;;22.77;22.27;102781.41;4983444;28;20042;-72
2021/03/29 11:20:44;;;;;;;12.95;3.50;;;;;;;23.01;21.66;102784.59;4992443;28;20027;-72
2021/03/29 11:23:09;;;;;;;16.83;3.60;;;;;;;22.90;22.39;102779.41;4977149;28;20031;-72
2021/03/29 11:25:34;;;;;;;15.25;3.70;;;;;;;22.52;21.24;102779.13;4996834;28;20053;-72
2021/03/29 11:27:59;;;;;;;14.60;3.55;;;;;;;23.30;20.61;102774.22;4971851;28;20019;-72
2021/03/29 11:30:25;;;;;;;17.60;3.97;;;;;;;24.07;22.06;102776.31;5036483;28;20027;-71